Time;durP1;ratioP1;P1;durP2;ratioP2;P2;SDS_P1;SDS_P2;PMS_P1;PMS_P2;Temp;Humidity;BMP_temperature;BMP_pressure;BME280_temperature;BME280_humidity;BME280_pressure;Samples;Min_cycle;Max_cycle;Signal;HPM_P1;HPM_P2
2020/12/26 00:00:07;;;;;;;;;;;;;;;;;;5051267;28;19921;-85
2020/12/26 00:02:33;;;;;;;;;;;;;;;;;;5044806;28;19921;-85
2020/12/26 00:05:00;;;;;;;;;;;;;;;;;;5044803;28;19921;-84
2020/12/26 00:07:26;;;;;;;;;;;;;;;;;;5046288;28;19925;-85
2020/12/26 00:09:53;;;;;;;;;;;;;;;;;;5045670;28;19921;-86
2020/12/26 00:12:19;;;;;;;;;;;;;;;;;;5043831;28;19928;-84
2020/12/26 00:14:45;;;;;;;;;;;;;;;;;;5050144;28;19924;-83
2020/12/26 00:17:12;;;;;;;;;;;;;;;;;;5060753;28;19928;-83
2020/12/26 00:19:38;;;;;;;;;;;;;;;;;;5061330;28;19925;-83
2020/12/26 00:22:05;;;;;;;;;;;;;;;;;;5061054;28;19928;-83
2020/12/26 00:24:31;;;;;;;;;;;;;;;;;;5059598;28;19929;-83
2020/12/26 00:26:57;;;;;;;;;;;;;;;;;;5042875;28;19983;-84
2020/12/26 00:29:24;;;;;;;;;;;;;;;;;;5042141;28;19921;-83
2020/12/26 00:31:50;;;;;;;;;;;;;;;;;;5042591;28;19921;-84
2020/12/26 00:34:16;;;;;;;;;;;;;;;;;;5042066;28;19921;-84
2020/12/26 00:36:43;;;;;;;;;;;;;;;;;;5042150;28;19947;-84
2020/12/26 00:39:09;;;;;;;;;;;;;;;;;;5044895;28;19967;-84
2020/12/26 00:41:36;;;;;;;;;;;;;;;;;;5055907;28;19921;-83
2020/12/26 00:44:02;;;;;;;;;;;;;;;;;;5046018;28;19975;-84
2020/12/26 00:46:28;;;;;;;;;;;;;;;;;;5041485;28;19925;-83
2020/12/26 00:48:55;;;;;;;;;;;;;;;;;;5042068;28;19921;-84
2020/12/26 00:51:21;;;;;;;;;;;;;;;;;;5041915;28;19971;-84
2020/12/26 00:53:47;;;;;;;;;;;;;;;;;;5042319;28;19921;-83
2020/12/26 00:56:14;;;;;;;;;;;;;;;;;;5040717;28;19921;-84
2020/12/26 00:58:40;;;;;;;;;;;;;;;;;;5041668;28;19921;-83
2020/12/26 01:01:06;;;;;;;;;;;;;;;;;;5041137;28;20282;-84
2020/12/26 01:03:33;;;;;;;;;;;;;;;;;;5041323;28;19971;-84
2020/12/26 01:05:59;;;;;;;;;;;;;;;;;;5041380;28;19924;-84
2020/12/26 01:08:26;;;;;;;;;;;;;;;;;;5040353;28;19928;-84
2020/12/26 01:10:52;;;;;;;;;;;;;;;;;;5050462;28;19975;-83
2020/12/26 01:13:18;;;;;;;;;;;;;;;;;;5048449;28;19932;-84
2020/12/26 01:15:45;;;;;;;;;;;;;;;;;;5040546;28;19921;-84
2020/12/26 01:18:11;;;;;;;;;;;;;;;;;;5041407;28;19975;-84
2020/12/26 01:20:37;;;;;;;;;;;;;;;;;;5040768;28;20072;-84
2020/12/26 01:23:04;;;;;;;;;;;;;;;;;;5041329;28;20392;-84
2020/12/26 01:25:30;;;;;;;;;;;;;;;;;;5040924;28;19927;-84
2020/12/26 01:27:56;;;;;;;;;;;;;;;;;;5046676;28;19905;-83
2020/12/26 01:30:23;;;;;;;;;;;;;;;;;;5053237;28;19920;-84
2020/12/26 01:32:49;;;;;;;;;;;;;;;;;;5042040;28;19928;-84
2020/12/26 01:35:16;;;;;;;;;;;;;;;;;;5040737;28;19948;-84
2020/12/26 01:37:42;;;;;;;;;;;;;;;;;;5040198;28;19943;-84
2020/12/26 01:40:10;;;;;;;;;;;;;;;;;;5040985;28;19924;-84
2020/12/26 01:42:37;;;;;;;;;;;;;;;;;;5040032;28;19986;-84
2020/12/26 01:45:03;;;;;;;;;;;;;;;;;;5041565;28;19928;-84
2020/12/26 01:47:29;;;;;;;;;;;;;;;;;;5056600;28;19928;-84
2020/12/26 01:49:56;;;;;;;;;;;;;;;;;;5040956;28;20332;-84
2020/12/26 01:52:23;;;;;;;;;;;;;;;;;;5040459;28;19928;-84
2020/12/26 01:54:49;;;;;;;;;;;;;;;;;;5041337;28;19928;-84
2020/12/26 01:57:16;;;;;;;;;;;;;;;;;;5042913;28;19925;-84
2020/12/26 01:59:42;;;;;;;;;;;;;;;;;;5040674;28;19921;-84
2020/12/26 02:02:09;;;;;;;;;;;;;;;;;;5041098;28;20392;-84
2020/12/26 02:04:35;;;;;;;;;;;;;;;;;;5053415;28;19921;-83
2020/12/26 02:07:01;;;;;;;;;;;;;;;;;;5044142;28;20000;-84
2020/12/26 02:09:28;;;;;;;;;;;;;;;;;;5040953;28;19932;-84
2020/12/26 02:11:54;;;;;;;;;;;;;;;;;;5040523;28;19921;-84
2020/12/26 02:14:20;;;;;;;;;;;;;;;;;;5040796;28;20343;-84
2020/12/26 02:16:47;;;;;;;;;;;;;;;;;;5040689;28;19921;-84
2020/12/26 02:19:13;;;;;;;;;;;;;;;;;;5041826;28;19921;-84
2020/12/26 02:21:40;;;;;;;;;;;;;;;;;;5051976;28;19921;-84
2020/12/26 02:24:06;;;;;;;;;;;;;;;;;;5047877;28;19960;-84
2020/12/26 02:26:32;;;;;;;;;;;;;;;;;;5039191;28;19951;-84
2020/12/26 02:28:59;;;;;;;;;;;;;;;;;;5039835;28;19921;-84
2020/12/26 02:31:25;;;;;;;;;;;;;;;;;;5039707;28;19929;-84
2020/12/26 02:33:51;;;;;;;;;;;;;;;;;;5040204;28;20278;-84
2020/12/26 02:36:18;;;;;;;;;;;;;;;;;;5039536;28;19929;-84
2020/12/26 02:38:44;;;;;;;;;;;;;;;;;;5040330;28;20404;-84
2020/12/26 02:41:11;;;;;;;;;;;;;;;;;;5037937;28;19921;-84
2020/12/26 02:43:37;;;;;;;;;;;;;;;;;;5039675;28;19928;-84
2020/12/26 02:46:03;;;;;;;;;;;;;;;;;;5039581;28;19921;-84
2020/12/26 02:48:30;;;;;;;;;;;;;;;;;;5039180;28;19921;-84
2020/12/26 02:50:56;;;;;;;;;;;;;;;;;;5039346;28;19921;-84
2020/12/26 02:53:22;;;;;;;;;;;;;;;;;;5039434;28;20011;-84
2020/12/26 02:55:49;;;;;;;;;;;;;;;;;;5039823;28;19921;-84
2020/12/26 02:58:15;;;;;;;;;;;;;;;;;;5039928;28;19936;-84
2020/12/26 03:00:42;;;;;;;;;;;;;;;;;;5040002;28;20385;-84
2020/12/26 03:03:08;;;;;;;;;;;;;;;;;;5040372;28;19932;-84
2020/12/26 03:05:34;;;;;;;;;;;;;;;;;;5040931;28;19921;-84
2020/12/26 03:08:01;;;;;;;;;;;;;;;;;;5042173;28;20366;-84
2020/12/26 03:10:27;;;;;;;;;;;;;;;;;;5039320;28;19921;-84
2020/12/26 03:12:53;;;;;;;;;;;;;;;;;;5038663;28;20286;-84
2020/12/26 03:15:21;;;;;;;;;;;;;;;;;;5039603;28;19974;-84
2020/12/26 03:17:47;;;;;;;;;;;;;;;;;;5039903;28;19928;-84
2020/12/26 03:20:14;;;;;;;;;;;;;;;;;;5040389;28;19925;-84
2020/12/26 03:22:40;;;;;;;;;;;;;;;;;;5040057;28;19925;-85
2020/12/26 03:25:07;;;;;;;;;;;;;;;;;;5039880;28;19921;-84
2020/12/26 03:27:33;;;;;;;;;;;;;;;;;;5039182;28;19921;-85
2020/12/26 03:29:59;;;;;;;;;;;;;;;;;;5039370;28;19928;-85
2020/12/26 03:32:26;;;;;;;;;;;;;;;;;;5049288;28;19921;-84
2020/12/26 03:34:52;;;;;;;;;;;;;;;;;;5051989;28;19924;-84
2020/12/26 03:37:18;;;;;;;;;;;;;;;;;;5043674;28;19921;-84
2020/12/26 03:39:45;;;;;;;;;;;;;;;;;;5044249;28;19928;-85
2020/12/26 03:42:11;;;;;;;;;;;;;;;;;;5043394;28;19921;-85
2020/12/26 03:44:38;;;;;;;;;;;;;;;;;;5043413;28;19925;-85
2020/12/26 03:47:04;;;;;;;;;;;;;;;;;;5044045;28;19921;-85
2020/12/26 03:49:30;;;;;;;;;;;;;;;;;;5046205;28;19928;-84
2020/12/26 03:51:57;;;;;;;;;;;;;;;;;;5054524;28;19948;-84
2020/12/26 03:54:23;;;;;;;;;;;;;;;;;;5043875;28;19921;-84
2020/12/26 03:56:49;;;;;;;;;;;;;;;;;;5042755;28;19921;-84
2020/12/26 03:59:16;;;;;;;;;;;;;;;;;;5042751;28;19921;-85
2020/12/26 04:01:43;;;;;;;;;;;;;;;;;;5050614;28;19905;-84
2020/12/26 04:04:10;;;;;;;;;;;;;;;;;;5055253;28;19928;-84
2020/12/26 04:06:36;;;;;;;;;;;;;;;;;;5042693;28;19921;-85
2020/12/26 04:09:02;;;;;;;;;;;;;;;;;;5054150;28;19943;-84
2020/12/26 04:11:29;;;;;;;;;;;;;;;;;;5043813;28;19920;-84
2020/12/26 04:13:55;;;;;;;;;;;;;;;;;;5042362;28;19921;-84
2020/12/26 04:16:21;;;;;;;;;;;;;;;;;;5041576;28;19921;-84
2020/12/26 04:18:48;;;;;;;;;;;;;;;;;;5042733;28;19925;-84
2020/12/26 04:21:14;;;;;;;;;;;;;;;;;;5042333;28;19928;-85
2020/12/26 04:23:40;;;;;;;;;;;;;;;;;;5046639;28;19948;-85
2020/12/26 04:26:07;;;;;;;;;;;;;;;;;;5050709;28;19921;-84
2020/12/26 04:28:33;;;;;;;;;;;;;;;;;;5049244;28;19921;-85
2020/12/26 04:31:00;;;;;;;;;;;;;;;;;;5043974;28;19944;-84
2020/12/26 04:33:26;;;;;;;;;;;;;;;;;;5042534;28;19921;-84
2020/12/26 04:35:52;;;;;;;;;;;;;;;;;;5041410;28;19925;-84
2020/12/26 04:38:19;;;;;;;;;;;;;;;;;;5042581;28;19967;-84
2020/12/26 04:40:45;;;;;;;;;;;;;;;;;;5042283;28;19943;-84
2020/12/26 04:43:11;;;;;;;;;;;;;;;;;;5041843;28;19928;-84
2020/12/26 04:45:38;;;;;;;;;;;;;;;;;;5041640;28;19954;-84
2020/12/26 04:48:04;;;;;;;;;;;;;;;;;;5042435;28;20381;-84
2020/12/26 04:50:31;;;;;;;;;;;;;;;;;;5042262;28;19944;-84
2020/12/26 04:52:57;;;;;;;;;;;;;;;;;;5049218;28;20369;-85
2020/12/26 04:55:23;;;;;;;;;;;;;;;;;;5049016;28;19921;-85
2020/12/26 04:57:50;;;;;;;;;;;;;;;;;;5041498;28;19920;-85
2020/12/26 05:00:16;;;;;;;;;;;;;;;;;;5041224;28;19921;-85
2020/12/26 05:02:42;;;;;;;;;;;;;;;;;;5042409;28;19921;-84
2020/12/26 05:05:09;;;;;;;;;;;;;;;;;;5041499;28;19928;-85
2020/12/26 05:07:35;;;;;;;;;;;;;;;;;;5049112;28;19921;-84
2020/12/26 05:10:02;;;;;;;;;;;;;;;;;;5045047;28;19928;-85
2020/12/26 05:12:28;;;;;;;;;;;;;;;;;;5043298;28;19932;-85
2020/12/26 05:14:54;;;;;;;;;;;;;;;;;;5044019;28;19921;-85
2020/12/26 05:17:21;;;;;;;;;;;;;;;;;;5042706;28;19921;-85
2020/12/26 05:19:47;;;;;;;;;;;;;;;;;;5051230;28;19932;-84
2020/12/26 05:22:13;;;;;;;;;;;;;;;;;;5046209;28;20357;-85
2020/12/26 05:24:40;;;;;;;;;;;;;;;;;;5042111;28;19924;-84
2020/12/26 05:27:07;;;;;;;;;;;;;;;;;;5041775;28;19952;-85
2020/12/26 05:29:36;;;;;;;;;;;;;;;;;;5041745;28;19921;-85
2020/12/26 05:32:03;;;;;;;;;;;;;;;;;;5041665;28;20000;-85
2020/12/26 05:34:29;;;;;;;;;;;;;;;;;;5041752;28;19928;-85
2020/12/26 05:36:55;;;;;;;;;;;;;;;;;;5041922;28;19944;-85
2020/12/26 05:39:22;;;;;;;;;;;;;;;;;;5043916;28;19928;-85
2020/12/26 05:41:48;;;;;;;;;;;;;;;;;;5051031;28;19921;-85
2020/12/26 05:44:14;;;;;;;;;;;;;;;;;;5056113;28;19921;-84
2020/12/26 05:46:41;;;;;;;;;;;;;;;;;;5051801;28;19921;-84
2020/12/26 05:49:07;;;;;;;;;;;;;;;;;;5040695;28;19929;-85
2020/12/26 05:51:34;;;;;;;;;;;;;;;;;;5040319;28;19921;-85
2020/12/26 05:54:00;;;;;;;;;;;;;;;;;;5039506;28;19944;-85
2020/12/26 05:56:26;;;;;;;;;;;;;;;;;;5040075;28;19925;-85
2020/12/26 05:58:53;;;;;;;;;;;;;;;;;;5039675;28;19972;-85
2020/12/26 06:01:20;;;;;;;;;;;;;;;;;;5040115;28;19921;-85
2020/12/26 06:03:47;;;;;;;;;;;;;;;;;;5039456;28;19978;-85
2020/12/26 06:06:13;;;;;;;;;;;;;;;;;;5039378;28;19921;-84
2020/12/26 06:08:39;;;;;;;;;;;;;;;;;;5041121;28;19931;-85
2020/12/26 06:11:06;;;;;;;;;;;;;;;;;;5038620;28;19928;-85
2020/12/26 06:13:32;;;;;;;;;;;;;;;;;;5040757;28;20328;-85
2020/12/26 06:15:58;;;;;;;;;;;;;;;;;;5039027;28;19921;-85
2020/12/26 06:18:25;;;;;;;;;;;;;;;;;;5039227;28;19928;-85
2020/12/26 06:20:51;;;;;;;;;;;;;;;;;;5039893;28;19927;-85
2020/12/26 06:23:18;;;;;;;;;;;;;;;;;;5039776;28;19947;-85
2020/12/26 06:25:44;;;;;;;;;;;;;;;;;;5037914;28;20377;-85
2020/12/26 06:28:10;;;;;;;;;;;;;;;;;;5039540;28;20324;-85
2020/12/26 06:30:37;;;;;;;;;;;;;;;;;;5039594;28;19921;-85
2020/12/26 06:33:03;;;;;;;;;;;;;;;;;;5041321;28;19927;-85
2020/12/26 06:35:29;;;;;;;;;;;;;;;;;;5042624;28;19925;-86
2020/12/26 06:37:57;;;;;;;;;;;;;;;;;;5042472;28;19921;-85
2020/12/26 06:40:24;;;;;;;;;;;;;;;;;;5048636;28;19984;-85
2020/12/26 06:42:50;;;;;;;;;;;;;;;;;;5048033;28;19921;-85
2020/12/26 06:45:16;;;;;;;;;;;;;;;;;;5045497;28;19921;-85
2020/12/26 06:47:43;;;;;;;;;;;;;;;;;;5039180;28;19944;-85
2020/12/26 06:50:09;;;;;;;;;;;;;;;;;;5038066;28;19921;-85
2020/12/26 06:52:35;;;;;;;;;;;;;;;;;;5038735;28;20358;-85
2020/12/26 06:55:02;;;;;;;;;;;;;;;;;;5038099;28;19971;-85
2020/12/26 06:57:28;;;;;;;;;;;;;;;;;;5037301;28;19932;-85
2020/12/26 06:59:54;;;;;;;;;;;;;;;;;;5038902;28;20369;-85
2020/12/26 07:02:21;;;;;;;;;;;;;;;;;;5040164;28;19921;-85
2020/12/26 07:04:47;;;;;;;;;;;;;;;;;;5040553;28;20417;-85
2020/12/26 07:07:14;;;;;;;;;;;;;;;;;;5039684;28;19921;-85
2020/12/26 07:09:41;;;;;;;;;;;;;;;;;;5039201;28;19925;-85
2020/12/26 07:12:07;;;;;;;;;;;;;;;;;;5041423;28;19984;-85
2020/12/26 07:14:33;;;;;;;;;;;;;;;;;;5038712;28;20362;-85
2020/12/26 07:17:00;;;;;;;;;;;;;;;;;;5038548;28;19928;-85
2020/12/26 07:19:26;;;;;;;;;;;;;;;;;;5041370;28;19921;-85
2020/12/26 07:21:52;;;;;;;;;;;;;;;;;;5052662;28;19917;-84
2020/12/26 07:24:18;;;;;;;;;;;;;;;;;;5056554;28;19980;-85
2020/12/26 07:26:45;;;;;;;;;;;;;;;;;;5040189;28;19921;-85
2020/12/26 07:29:11;;;;;;;;;;;;;;;;;;5039696;28;19928;-85
2020/12/26 07:31:37;;;;;;;;;;;;;;;;;;5040512;28;19932;-85
2020/12/26 07:34:04;;;;;;;;;;;;;;;;;;5040080;28;19928;-85
2020/12/26 07:36:30;;;;;;;;;;;;;;;;;;5040409;28;19971;-85
2020/12/26 07:38:57;;;;;;;;;;;;;;;;;;5051253;28;20086;-85
2020/12/26 07:41:23;;;;;;;;;;;;;;;;;;5047911;28;19929;-85
2020/12/26 07:43:49;;;;;;;;;;;;;;;;;;5046790;28;19928;-85
2020/12/26 07:46:16;;;;;;;;;;;;;;;;;;5045226;28;19921;-85
2020/12/26 07:48:42;;;;;;;;;;;;;;;;;;5047691;28;20296;-85
2020/12/26 07:51:08;;;;;;;;;;;;;;;;;;5049881;28;19944;-85
2020/12/26 07:53:35;;;;;;;;;;;;;;;;;;5050195;28;19928;-85
2020/12/26 07:56:01;;;;;;;;;;;;;;;;;;5051693;28;19951;-85
2020/12/26 07:58:28;;;;;;;;;;;;;;;;;;5049130;28;19925;-85
2020/12/26 08:00:54;;;;;;;;;;;;;;;;;;5039921;28;19921;-86
2020/12/26 08:03:21;;;;;;;;;;;;;;;;;;5040628;28;19928;-86
2020/12/26 08:05:47;;;;;;;;;;;;;;;;;;5040510;28;19932;-86
2020/12/26 08:08:14;;;;;;;;;;;;;;;;;;5047723;28;19912;-85
2020/12/26 08:10:40;;;;;;;;;;;;;;;;;;5041867;28;19921;-87
2020/12/26 08:13:08;;;;;;;;;;;;;;;;;;5041114;28;19921;-86
2020/12/26 08:15:34;;;;;;;;;;;;;;;;;;5040224;28;19928;-87
2020/12/26 08:18:01;;;;;;;;;;;;;;;;;;5045562;28;19921;-86
2020/12/26 08:20:27;;;;;;;;;;;;;;;;;;5045261;28;19925;-86
2020/12/26 08:22:53;;;;;;;;;;;;;;;;;;5042871;28;19920;-86
2020/12/26 08:25:20;;;;;;;;;;;;;;;;;;5042881;28;19921;-85
2020/12/26 08:27:46;;;;;;;;;;;;;;;;;;5042355;28;19920;-87
2020/12/26 08:30:12;;;;;;;;;;;;;;;;;;5041060;28;19921;-86
2020/12/26 08:32:39;;;;;;;;;;;;;;;;;;5041561;28;20283;-87
2020/12/26 08:35:05;;;;;;;;;;;;;;;;;;5041631;28;19967;-87
2020/12/26 08:37:32;;;;;;;;;;;;;;;;;;5041384;28;19927;-88
2020/12/26 08:39:58;;;;;;;;;;;;;;;;;;5041776;28;19920;-87
2020/12/26 08:42:24;;;;;;;;;;;;;;;;;;5048431;28;19925;-87
2020/12/26 08:44:51;;;;;;;;;;;;;;;;;;5053623;28;19928;-87
2020/12/26 10:17:54;;;;;;;;;;;;;;;;;;5039751;28;21682;-83
2020/12/26 10:20:21;;;;;;;;;;;;;;;;;;5039029;28;21507;-83
2020/12/26 10:22:47;;;;;;;;;;;;;;;;;;5039078;28;25082;-83
2020/12/26 10:25:14;;;;;;;;;;;;;;;;;;5039291;28;25124;-83
2020/12/26 10:27:40;;;;;;;;;;;;;;;;;;5038981;28;25065;-83
2020/12/26 10:30:06;;;;;;;;;;;;;;;;;;5038845;28;25081;-83
2020/12/26 10:32:33;;;;;;;;;;;;;;;;;;5038605;28;25064;-83
2020/12/26 10:34:59;;;;;;;;;;;;;;;;;;5038125;28;25078;-83
2020/12/26 10:37:25;;;;;;;;;;;;;;;;;;5038587;28;20088;-84
2020/12/26 10:39:52;;;;;;;;;;;;;;;;;;5038809;28;25053;-83
2020/12/26 10:42:18;;;;;;;;;;;;;;;;;;5038804;28;20462;-83
2020/12/26 10:44:45;;;;;;;;;;;;;;;;;;5041926;28;20036;-83
2020/12/26 10:47:11;;;;;;;;;;;;;;;;;;5050517;28;20108;-83
2020/12/26 10:49:37;;;;;;;;;;;;;;;;;;5038826;28;20577;-83
2020/12/26 10:52:04;;;;;;;;;;;;;;;;;;5039063;28;20074;-83
2020/12/26 10:54:30;;;;;;;;;;;;;;;;;;5037918;28;20084;-83
2020/12/26 10:56:57;;;;;;;;;;;;;;;;;;5040405;28;20077;-83
2020/12/26 10:59:23;;;;;;;;;;;;;;;;;;5037256;28;25086;-83
2020/12/26 11:01:49;;;;;;;;;;;;;;;;;;5039515;28;20092;-83
2020/12/26 11:04:16;;;;;;;;;;;;;;;;;;5038781;28;25075;-83
2020/12/26 11:06:42;;;;;;;;;;;;;;;;;;5038403;28;20055;-83
2020/12/26 11:09:08;;;;;;;;;;;;;;;;;;5038690;28;20089;-83
2020/12/26 11:11:35;;;;;;;;;;;;;;;;;;5039298;28;20033;-83
2020/12/26 11:14:01;;;;;;;;;;;;;;;;;;5041969;28;20032;-83
2020/12/26 11:16:28;;;;;;;;;;;;;;;;;;5039980;28;20054;-83
2020/12/26 11:18:54;;;;;;;;;;;;;;;;;;5041044;28;25077;-83
2020/12/26 11:21:21;;;;;;;;;;;;;;;;;;5042900;28;20025;-85
2020/12/26 11:23:48;;;;;;;;;;;;;;;;;;5043019;28;20030;-83
2020/12/26 11:26:14;;;;;;;;;;;;;;;;;;5041615;28;20051;-83
2020/12/26 11:28:41;;;;;;;;;;;;;;;;;;5041969;28;19993;-83
2020/12/26 11:31:07;;;;;;;;;;;;;;;;;;5049474;28;25062;-83
2020/12/26 11:33:33;;;;;;;;;;;;;;;;;;5045994;28;20065;-83
2020/12/26 11:36:00;;;;;;;;;;;;;;;;;;5042921;28;20502;-83
2020/12/26 11:38:26;;;;;;;;;;;;;;;;;;5042871;28;19992;-82
2020/12/26 11:40:52;;;;;;;;;;;;;;;;;;5041304;28;19961;-85
2020/12/26 11:43:19;;;;;;;;;;;;;;;;;;5040484;28;20068;-83
2020/12/26 11:45:45;;;;;;;;;;;;;;;;;;5040418;28;25073;-83
2020/12/26 11:48:11;;;;;;;;;;;;;;;;;;5040459;28;20021;-83
2020/12/26 11:50:38;;;;;;;;;;;;;;;;;;5040806;28;20026;-83
2020/12/26 11:53:04;;;;;;;;;;;;;;;;;;5043876;28;20023;-83
2020/12/26 11:55:31;;;;;;;;;;;;;;;;;;5043963;28;20058;-83
2020/12/26 11:57:57;;;;;;;;;;;;;;;;;;5044003;28;25101;-83
2020/12/26 12:00:25;;;;;;;;;;;;;;;;;;5043072;28;20065;-83
2020/12/26 12:02:51;;;;;;;;;;;;;;;;;;5044204;28;20074;-83
2020/12/26 12:05:17;;;;;;;;;;;;;;;;;;5044427;28;20208;-83
2020/12/26 12:07:44;;;;;;;;;;;;;;;;;;5044372;28;25075;-83
2020/12/26 12:10:10;;;;;;;;;;;;;;;;;;5044517;28;20436;-83
2020/12/26 12:12:37;;;;;;;;;;;;;;;;;;5044462;28;25085;-83
2020/12/26 12:15:03;;;;;;;;;;;;;;;;;;5044943;28;20152;-83
2020/12/26 12:31:20;;;;;;;;;;;;;;;;;;4983588;28;25073;-84
2020/12/26 12:33:46;;;;;;;;;;;;;;;;;;4983060;28;20586;-85
2020/12/26 12:36:13;;;;;;;;;;;;;;;;;;4981727;28;20429;-85
2020/12/26 12:38:39;;;;;;;;;;;;;;;;;;4981653;28;25121;-85
2020/12/26 12:41:05;;;;;;;;;;;;;;;;;;4982222;28;20058;-84
2020/12/26 12:43:32;;;;;;;;;;;;;;;;;;4981624;28;20522;-85
2020/12/26 12:45:58;;;;;;;;;;;;;;;;;;4980284;28;20033;-85
2020/12/26 12:48:25;;;;;;;;;;;;;;;;;;4980904;28;20005;-85
2020/12/26 12:50:51;;;;;;;;;;;;;;;;;;4982977;28;25066;-85
2020/12/26 12:53:18;;;;;;;;;;;;;;;;;;4982228;28;19975;-85
2020/12/26 12:55:44;;;;;;;;;;;;;;;;;;5004237;28;19969;-85
2020/12/26 12:58:10;;;;;;;;;;;;;;;;;;5045918;28;19952;-85
2020/12/26 13:00:37;;;;;;;;;;;;;;;;;;5052738;28;19948;-84
2020/12/26 13:03:03;;;;;;;;;;;;;;;;;;5040783;28;19925;-85
2020/12/26 13:05:30;;;;;;;;;;;;;;;;;;5041643;28;20007;-85
2020/12/26 13:07:56;;;;;;;;;;;;;;;;;;5042138;28;19929;-85
2020/12/26 13:10:23;;;;;;;;;;;;;;;;;;5042195;28;19953;-85
2020/12/26 13:12:49;;;;;;;;;;;;;;;;;;5042690;28;19925;-85
2020/12/26 13:15:16;;;;;;;;;;;;;;;;;;5043320;28;19924;-85
2020/12/26 13:17:42;;;;;;;;;;;;;;;;;;5057274;28;19916;-85
2020/12/26 13:20:08;;;;;;;;;;;;;;;;;;5045088;28;19925;-84
2020/12/26 13:22:35;;;;;;;;;;;;;;;;;;5042283;28;19925;-84
2020/12/26 13:25:02;;;;;;;;;;;;;;;;;;5042299;28;19932;-87
2020/12/26 13:27:28;;;;;;;;;;;;;;;;;;5048019;28;20305;-84
2020/12/26 13:29:55;;;;;;;;;;;;;;;;;;5042672;28;19925;-87
2020/12/26 13:32:21;;;;;;;;;;;;;;;;;;5043661;28;19925;-86
2020/12/26 13:34:47;;;;;;;;;;;;;;;;;;5051650;28;19933;-85
2020/12/26 13:37:14;;;;;;;;;;;;;;;;;;5050439;28;19925;-85
2020/12/26 13:39:41;;;;;;;;;;;;;;;;;;5046117;28;19925;-86
2020/12/26 13:42:08;;;;;;;;;;;;;;;;;;5042126;28;20293;-86
2020/12/26 13:44:34;;;;;;;;;;;;;;;;;;5040923;28;19979;-85
2020/12/26 13:47:00;;;;;;;;;;;;;;;;;;5043202;28;19929;-84
2020/12/26 13:49:27;;;;;;;;;;;;;;;;;;5044707;28;19925;-85
2020/12/26 13:51:53;;;;;;;;;;;;;;;;;;5048416;28;19928;-83
2020/12/26 13:54:20;;;;;;;;;;;;;;;;;;5051286;28;19932;-84
2020/12/26 13:56:46;;;;;;;;;;;;;;;;;;5042767;28;20032;-84
2020/12/26 13:59:13;;;;;;;;;;;;;;;;;;5042843;28;20382;-84
2020/12/26 14:01:39;;;;;;;;;;;;;;;;;;5044127;28;19925;-84
2020/12/26 14:04:08;;;;;;;;;;;;;;;;;;5044670;28;19925;-84
2020/12/26 14:06:34;;;;;;;;;;;;;;;;;;5067168;22;20309;-83
2020/12/26 14:09:01;;;;;;;;;;;;;;;;;;5059054;28;19943;-82
2020/12/26 14:11:27;;;;;;;;;;;;;;;;;;5074629;28;19923;-83
2020/12/26 14:13:54;;;;;;;;;;;;;;;;;;5061153;28;20384;-84
2020/12/26 14:16:20;;;;;;;;;;;;;;;;;;5058405;28;19924;-84
2020/12/26 14:18:46;;;;;;;;;;;;;;;;;;5059190;28;19964;-84
2020/12/26 14:21:13;;;;;;;;;;;;;;;;;;5059181;28;20385;-84
2020/12/26 14:23:39;;;;;;;;;;;;;;;;;;5061516;28;19995;-83
2020/12/26 14:26:05;;;;;;;;;;;;;;;;;;5067566;28;19932;-83
2020/12/26 14:28:32;;;;;;;;;;;;;;;;;;5067818;28;19925;-84
2020/12/26 14:30:58;;;;;;;;;;;;;;;;;;5067887;28;20369;-83
2020/12/26 14:33:24;;;;;;;;;;;;;;;;;;5068132;28;19936;-83
2020/12/26 14:35:51;;;;;;;;;;;;;;;;;;5066871;28;19935;-84
2020/12/26 14:38:17;;;;;;;;;;;;;;;;;;5060263;28;20258;-83
2020/12/26 14:40:44;;;;;;;;;;;;;;;;;;5058550;28;19968;-83
2020/12/26 14:43:11;;;;;;;;;;;;;;;;;;5058505;28;20020;-83
2020/12/26 14:45:37;;;;;;;;;;;;;;;;;;5059249;28;19964;-85
2020/12/26 14:48:03;;;;;;;;;;;;;;;;;;5060215;28;20426;-84
2020/12/26 14:50:30;;;;;;;;;;;;;;;;;;5060641;28;19954;-84
2020/12/26 14:52:56;;;;;;;;;;;;;;;;;;5062404;28;19954;-83
2020/12/26 14:55:22;;;;;;;;;;;;;;;;;;5078033;28;19975;-78
2020/12/26 14:57:49;;;;;;;;;;;;;;;;;;5077919;28;19931;-81
2020/12/26 15:00:15;;;;;;;;;;;;;;;;;;5076496;28;19954;-81
2020/12/26 15:02:42;;;;;;;;;;;;;;;;;;5077785;28;20450;-80
2020/12/26 15:05:08;;;;;;;;;;;;;;;;;;5069285;28;19948;-83
2020/12/26 15:07:34;;;;;;;;;;;;;;;;;;5058803;28;19952;-83
2020/12/26 15:10:01;;;;;;;;;;;;;;;;;;5058564;28;20312;-84
2020/12/26 15:12:27;;;;;;;;;;;;;;;;;;5058483;28;19950;-84
2020/12/26 15:14:53;;;;;;;;;;;;;;;;;;5057791;28;19958;-83
2020/12/26 15:17:20;;;;;;;;;;;;;;;;;;5058297;28;19947;-82
2020/12/26 15:19:46;;;;;;;;;;;;;;;;;;5058315;28;19946;-81
2020/12/26 15:22:13;;;;;;;;;;;;;;;;;;5058432;28;20000;-84
2020/12/26 15:24:39;;;;;;;;;;;;;;;;;;5058831;28;19947;-84
2020/12/26 15:27:05;;;;;;;;;;;;;;;;;;5059746;28;19963;-84
2020/12/26 15:29:32;;;;;;;;;;;;;;;;;;5066557;28;19954;-84
2020/12/26 15:31:58;;;;;;;;;;;;;;;;;;5070384;28;19956;-81
2020/12/26 15:34:24;;;;;;;;;;;;;;;;;;5062548;28;19955;-83
2020/12/26 15:36:51;;;;;;;;;;;;;;;;;;5061286;28;20014;-82
2020/12/26 15:39:17;;;;;;;;;;;;;;;;;;5061764;28;19959;-84
2020/12/26 15:41:44;;;;;;;;;;;;;;;;;;5061729;28;20287;-82
2020/12/26 15:44:10;;;;;;;;;;;;;;;;;;5062296;28;19963;-83
2020/12/26 15:46:36;;;;;;;;;;;;;;;;;;5060772;28;20018;-81
2020/12/26 15:49:03;;;;;;;;;;;;;;;;;;5062324;28;19971;-84
2020/12/26 15:51:29;;;;;;;;;;;;;;;;;;5061904;28;20017;-84
2020/12/26 15:53:55;;;;;;;;;;;;;;;;;;5061835;28;19949;-83
2020/12/26 15:56:22;;;;;;;;;;;;;;;;;;5061070;28;20459;-82
2020/12/26 15:58:48;;;;;;;;;;;;;;;;;;5060835;28;19947;-84
2020/12/26 16:01:15;;;;;;;;;;;;;;;;;;5061753;28;19956;-84
2020/12/26 16:03:41;;;;;;;;;;;;;;;;;;5063156;28;19965;-83
2020/12/26 16:06:07;;;;;;;;;;;;;;;;;;5061970;28;19975;-83
2020/12/26 16:08:34;;;;;;;;;;;;;;;;;;5062688;28;20430;-84
2020/12/26 16:11:00;;;;;;;;;;;;;;;;;;5062534;28;19951;-83
2020/12/26 16:13:26;;;;;;;;;;;;;;;;;;5062631;28;19946;-80
2020/12/26 16:15:53;;;;;;;;;;;;;;;;;;5075987;28;19969;-80
2020/12/26 16:18:19;;;;;;;;;;;;;;;;;;5065795;28;20397;-82
2020/12/26 16:20:45;;;;;;;;;;;;;;;;;;5070681;28;19959;-79
2020/12/26 16:23:12;;;;;;;;;;;;;;;;;;5078263;28;19987;-80
2020/12/26 16:25:38;;;;;;;;;;;;;;;;;;5078066;28;20000;-80
2020/12/26 16:28:05;;;;;;;;;;;;;;;;;;5066125;28;19955;-83
2020/12/26 16:30:31;;;;;;;;;;;;;;;;;;5062552;28;19954;-84
2020/12/26 16:32:57;;;;;;;;;;;;;;;;;;5065414;28;20419;-83
2020/12/26 16:35:24;;;;;;;;;;;;;;;;;;5079769;28;19964;-80
2020/12/26 16:37:50;;;;;;;;;;;;;;;;;;5080327;28;20065;-84
2020/12/26 16:40:16;;;;;;;;;;;;;;;;;;5073884;28;19950;-84
2020/12/26 16:42:43;;;;;;;;;;;;;;;;;;5062101;28;20015;-83
2020/12/26 16:45:10;;;;;;;;;;;;;;;;;;5061231;28;19957;-82
2020/12/26 16:47:36;;;;;;;;;;;;;;;;;;5060619;28;19954;-80
2020/12/26 16:50:03;;;;;;;;;;;;;;;;;;5064181;28;19947;-84
2020/12/26 16:52:32;;;;;;;;;;;;;;;;;;5066973;28;19946;-82
2020/12/26 16:54:58;;;;;;;;;;;;;;;;;;5069612;28;19966;-80
2020/12/26 16:57:25;;;;;;;;;;;;;;;;;;5066950;28;20002;-83
2020/12/26 16:59:51;;;;;;;;;;;;;;;;;;5066398;28;19993;-79
2020/12/26 17:02:17;;;;;;;;;;;;;;;;;;5062526;28;19994;-83
2020/12/26 17:04:44;;;;;;;;;;;;;;;;;;5060738;28;20377;-84
2020/12/26 17:07:10;;;;;;;;;;;;;;;;;;5059354;28;25129;-82
2020/12/26 17:09:37;;;;;;;;;;;;;;;;;;5060907;28;20014;-83
2020/12/26 17:12:03;;;;;;;;;;;;;;;;;;5061315;28;20007;-82
2020/12/26 17:14:29;;;;;;;;;;;;;;;;;;5061074;28;20020;-82
2020/12/26 17:16:56;;;;;;;;;;;;;;;;;;5061844;28;20037;-82
2020/12/26 17:19:22;;;;;;;;;;;;;;;;;;5066464;28;25080;-79
2020/12/26 17:21:48;;;;;;;;;;;;;;;;;;5067185;28;20017;-80
2020/12/26 17:24:15;;;;;;;;;;;;;;;;;;5067515;28;20039;-81
2020/12/26 17:26:41;;;;;;;;;;;;;;;;;;5065976;28;20042;-80
2020/12/26 17:29:08;;;;;;;;;;;;;;;;;;5066791;28;20025;-81
2020/12/26 17:31:34;;;;;;;;;;;;;;;;;;5062473;28;25145;-82
2020/12/26 17:34:00;;;;;;;;;;;;;;;;;;5061253;28;20070;-82
2020/12/26 17:36:27;;;;;;;;;;;;;;;;;;5061283;28;20083;-83
2020/12/26 17:38:53;;;;;;;;;;;;;;;;;;5062062;28;20603;-82
2020/12/26 17:41:20;;;;;;;;;;;;;;;;;;5066955;28;20132;-81
2020/12/26 17:43:46;;;;;;;;;;;;;;;;;;5072924;28;25092;-80
2020/12/26 17:46:13;;;;;;;;;;;;;;;;;;5075115;28;20090;-80
2020/12/26 17:48:39;;;;;;;;;;;;;;;;;;5072197;28;25086;-82
2020/12/26 17:51:05;;;;;;;;;;;;;;;;;;5061873;28;20201;-82
2020/12/26 17:53:32;;;;;;;;;;;;;;;;;;5066243;28;20338;-83
2020/12/26 17:55:58;;;;;;;;;;;;;;;;;;5070207;28;25065;-82
2020/12/26 17:58:24;;;;;;;;;;;;;;;;;;5062028;28;20608;-82
2020/12/26 18:00:51;;;;;;;;;;;;;;;;;;5059481;28;25089;-82
2020/12/26 18:03:17;;;;;;;;;;;;;;;;;;5059679;28;20201;-82
2020/12/26 18:05:44;;;;;;;;;;;;;;;;;;5060013;28;25071;-81
2020/12/26 18:08:11;;;;;;;;;;;;;;;;;;5062227;28;20463;-81
2020/12/26 18:10:37;;;;;;;;;;;;;;;;;;5078550;28;25065;-79
2020/12/26 18:13:03;;;;;;;;;;;;;;;;;;5076279;28;20203;-80
2020/12/26 18:15:30;;;;;;;;;;;;;;;;;;5071369;28;25066;-82
2020/12/26 18:17:56;;;;;;;;;;;;;;;;;;5061912;28;25088;-83
2020/12/26 18:20:22;;;;;;;;;;;;;;;;;;5061900;28;20548;-83
2020/12/26 18:22:49;;;;;;;;;;;;;;;;;;5060087;28;25079;-82